Detall de PIREP

Printer-friendly versionPDF version

[2012/01/30 08:29:00]
Flight IATA:CT2110
Pilot Number:041
Company ICAO:CAT
Aircraft Type:F70/E
PAX:51
Aircraft Registration:DA
Departing Airport: LEVC
Destination Airport: LEST
Alternate Airport:LEMD
Online: VATSIM
Route:CENTA A33 PRADO UN733 FORNO
Flight Level:F270
No Slew and time accel
No pause
Crash detect
Detect pilot in Cockpit between each 30 and 45 minutes
08:29 Zero fuel Weight: 73874 Lbs, Fuel Weight: 16948 Lbs
08:29 VATSIM:LEVC 300800Z 27003KT 240V300 CAVOK 03/M03 Q1023 NOSIG
08:29 VATSIM:LEST 300800Z 00000KT 9999 4000N VCFG NSC M01/M01 Q1025 NOSIG
08:30 VOICE CATALONIAN
08:31 Parking Brakes off
08:40 Take-off
08:40 Take off Weight: 90413 Lbs
08:40 Wind: 273º @ 002 Knots Heading: 295º
08:40 POS N39º 29´ 26´´ W000º 29´ 07´´
08:40 Gear Up: 157 Knots
08:40 Flaps:2 at 157 Knots
08:40 Flaps:1 at 159 Knots
08:40 Flaps:0 at 155 Knots
08:55 Wind:005º@070 Knots Heading: 308º Ground Speed: 349 Knots Altitude 24593 ft
08:57 TOC
08:57 Fuel Weight: 14288 Lb
09:10 Wind:355º@063 Knots Heading: 304º Ground Speed: 363 Knots Altitude 27375 ft
09:25 Wind:342º@041 Knots Heading: 299º Ground Speed: 371 Knots Altitude 27404 ft
09:40 Wind:340º@035 Knots Heading: 306º Ground Speed: 371 Knots Altitude 27395 ft
09:43 TOD
09:43 Fuel Weight: 10633 Lb
09:54 Flaps:1 at 230 Knots
09:55 Wind:030º@003 Knots Heading: 104º Ground Speed: 228 Knots Altitude 3953 ft
09:55 Flaps:2 at 219 Knots
09:56 Flaps:3 at 211 Knots
09:56 Gear Down: 211 Knots
09:56 Flaps:2 at 210 Knots
09:57 Flaps:3 at 209 Knots
09:57 Flaps:2 at 196 Knots
09:57 Flaps:3 at 192 Knots
09:57 Flaps:2 at 190 Knots
09:57 Flaps:3 at 189 Knots
09:57 Flaps:2 at 174 Knots
09:57 Flaps:3 at 174 Knots
09:57 Flaps:2 at 172 Knots
09:57 Flaps:3 at 172 Knots
09:57 Flaps:2 at 170 Knots
09:57 Flaps:3 at 169 Knots
09:58 Flaps:2 at 164 Knots
09:58 Flaps:3 at 163 Knots
09:58 Flaps:4 at 158 Knots
09:58 Flaps:3 at 157 Knots
09:58 Flaps:4 at 156 Knots
09:58 Flaps:3 at 153 Knots
09:58 Flaps:4 at 149 Knots
09:58 Flaps:3 at 147 Knots
09:58 Flaps:4 at 145 Knots
09:58 Flaps:3 at 143 Knots
09:58 Flaps:4 at 139 Knots
09:58 Flaps:3 at 128 Knots
09:58 Flaps:4 at 127 Knots
09:58 Flaps:3 at 124 Knots
09:58 Flaps:4 at 121 Knots
09:58 Flaps:3 at 117 Knots
09:58 Flaps:4 at 117 Knots
09:58 Flaps:3 at 116 Knots
09:58 Flaps:4 at 116 Knots
09:58 TouchDown:Rate -346 ft/min Speed: 116 Knots
09:58 Flaps:3 at 107 Knots
09:58 Flaps:4 at 102 Knots
09:58 Flaps:3 at 75 Knots
09:58 Flaps:4 at 67 Knots
09:58 Flaps:3 at 59 Knots
09:58 Flaps:4 at 51 Knots
09:59 Flaps:3 at 21 Knots
09:59 VATSIM:LEST 300930Z 00000KT CAVOK 02/01 Q1026 NOSIG
09:59 Land
09:59 Wind:037º@002 Knots
09:59 Heading: 166º
09:59 Flight Duration: 01:19
09:59 Landing Weight: 83937 Lbs
09:59 POS N42º 54´ 05´´ W008º 25´ 00´´
10:00 Parking brakes on
10:00 Block to Block Duration: 01:29
10:00 Final Fuel: 10004 Lbls
10:00 Spent Fuel: 6944 Lbls
10:00 Flight Length: 438 NM
10:00 TOD Land Length: 69 NM

Exportar CSV

Powered by Drupal - Modified by Danger4k